createdAt,value
2022-08-17T00:00:12.799Z,12.30
2022-08-17T00:05:28.524Z,9.43
2022-08-17T00:07:56.362Z,9.23
2022-08-17T00:10:25.823Z,9.88
2022-08-17T00:12:54.434Z,11.43
2022-08-17T00:15:23.474Z,10.30
2022-08-17T00:17:52.781Z,10.23
2022-08-17T00:20:23.390Z,10.68
2022-08-17T00:23:07.119Z,11.10
2022-08-17T00:25:36.341Z,11.43
2022-08-17T00:28:04.686Z,12.40
2022-08-17T00:30:51.139Z,10.43
2022-08-17T00:33:22.169Z,9.75
2022-08-17T00:35:51.159Z,11.07
2022-08-17T00:38:19.234Z,11.07
2022-08-17T00:40:51.810Z,10.85
2022-08-17T00:43:29.274Z,10.60
2022-08-17T00:45:57.232Z,11.93
2022-08-17T00:48:29.134Z,10.45
2022-08-17T00:51:02.858Z,10.40
2022-08-17T00:53:33.501Z,11.57
2022-08-17T00:56:05.908Z,11.32
2022-08-17T00:58:36.601Z,11.68
2022-08-17T01:01:06.612Z,11.05
2022-08-17T01:03:35.671Z,11.10
2022-08-17T01:06:11.227Z,11.18
2022-08-17T01:08:41.076Z,11.57
2022-08-17T01:11:10.196Z,11.40
2022-08-17T01:13:41.992Z,10.65
2022-08-17T01:16:16.909Z,11.95
2022-08-17T01:18:46.262Z,12.43
2022-08-17T01:21:21.216Z,11.95
2022-08-17T01:23:50.435Z,12.00
2022-08-17T01:26:19.338Z,12.48
2022-08-17T01:28:54.154Z,11.75
2022-08-17T01:31:25.091Z,10.93
2022-08-17T01:33:53.307Z,11.48
2022-08-17T01:36:21.217Z,10.80
2022-08-17T01:38:50.350Z,13.30
2022-08-17T01:41:18.456Z,10.77
2022-08-17T01:43:49.849Z,11.70
2022-08-17T01:46:22.375Z,12.75
2022-08-17T01:48:51.370Z,12.52
2022-08-17T01:51:19.862Z,11.52
2022-08-17T01:53:51.625Z,12.82
2022-08-17T01:56:22.567Z,11.60
2022-08-17T01:58:50.419Z,10.65
2022-08-17T02:01:20.439Z,11.20
2022-08-17T02:03:56.190Z,11.27
2022-08-17T02:06:29.978Z,11.95
2022-08-17T02:09:03.005Z,11.88
2022-08-17T02:11:33.098Z,11.40
2022-08-17T02:14:03.106Z,12.18
2022-08-17T02:16:37.952Z,11.52
2022-08-17T02:19:09.237Z,12.77
2022-08-17T02:21:37.927Z,11.48
2022-08-17T02:24:07.967Z,12.10
2022-08-17T02:26:35.715Z,14.90
2022-08-17T02:29:04.076Z,13.68
2022-08-17T02:31:32.319Z,12.20
2022-08-17T02:34:04.516Z,12.95
2022-08-17T02:36:33.894Z,12.45
2022-08-17T02:39:02.161Z,14.68
2022-08-17T02:41:31.772Z,13.27
2022-08-17T02:43:59.640Z,12.45
2022-08-17T02:46:27.870Z,13.60
2022-08-17T02:48:55.682Z,12.00
2022-08-17T02:51:23.441Z,12.77
2022-08-17T02:53:51.656Z,13.23
2022-08-17T02:56:19.495Z,12.73
2022-08-17T02:58:48.589Z,13.35
2022-08-17T03:01:16.438Z,13.60
2022-08-17T03:03:44.722Z,13.30
2022-08-17T03:06:12.525Z,11.82
2022-08-17T03:08:40.610Z,12.52
2022-08-17T03:11:08.332Z,13.43
2022-08-17T03:13:36.330Z,13.93
2022-08-17T03:16:05.827Z,13.68
2022-08-17T03:18:33.516Z,12.63
2022-08-17T03:21:04.290Z,14.40
2022-08-17T03:23:33.769Z,13.43
2022-08-17T03:26:02.150Z,13.73
2022-08-17T03:28:30.103Z,13.18
2022-08-17T03:30:57.832Z,13.52
2022-08-17T03:33:26.927Z,13.98
2022-08-17T03:35:54.671Z,14.27
2022-08-17T03:38:23.223Z,18.52
2022-08-17T03:40:56.237Z,15.05
2022-08-17T03:43:28.833Z,14.32
2022-08-17T03:46:28.896Z,13.82
2022-08-17T03:49:21.824Z,16.10
2022-08-17T03:52:07.083Z,16.08
2022-08-17T03:54:52.792Z,15.25
2022-08-17T03:57:20.574Z,15.82
2022-08-17T03:59:48.527Z,16.13
2022-08-17T04:02:19.849Z,17.30
2022-08-17T04:04:50.910Z,16.47
2022-08-17T04:07:19.458Z,15.70
2022-08-17T04:09:47.249Z,16.13
2022-08-17T04:12:16.591Z,17.67
2022-08-17T04:14:52.137Z,13.60
2022-08-17T04:17:22.943Z,14.98
2022-08-17T04:19:52.064Z,15.15
2022-08-17T04:22:33.121Z,21.13
2022-08-17T04:25:05.300Z,15.48
2022-08-17T04:27:33.020Z,16.10
2022-08-17T04:30:00.752Z,14.20
2022-08-17T04:33:03.419Z,15.00
2022-08-17T04:35:21.231Z,14.10
2022-08-17T04:37:48.969Z,16.45
2022-08-17T04:40:34.815Z,15.00
2022-08-17T04:43:04.460Z,15.25
2022-08-17T04:45:32.727Z,15.25
2022-08-17T04:48:01.138Z,14.98
2022-08-17T04:50:30.333Z,16.00
2022-08-17T04:52:58.489Z,14.20
2022-08-17T04:55:26.370Z,13.30
2022-08-17T04:57:54.275Z,14.65
2022-08-17T05:00:22.337Z,14.82
2022-08-17T05:02:52.467Z,14.70
2022-08-17T05:05:21.696Z,16.77
2022-08-17T05:07:52.234Z,17.02
2022-08-17T05:10:20.076Z,15.43
2022-08-17T05:12:48.864Z,14.07
2022-08-17T05:15:16.846Z,15.18
2022-08-17T05:17:48.044Z,15.82
2022-08-17T05:20:15.851Z,16.85
2022-08-17T05:22:52.920Z,15.60
2022-08-17T05:25:25.604Z,15.85
2022-08-17T05:27:54.169Z,14.23
2022-08-17T05:30:22.673Z,13.85
2022-08-17T05:32:55.588Z,16.02
2022-08-17T05:35:24.043Z,13.82
2022-08-17T05:37:53.636Z,15.18
2022-08-17T05:40:25.887Z,14.30
2022-08-17T05:43:04.276Z,14.23
2022-08-17T05:45:55.957Z,15.80
2022-08-17T05:48:22.943Z,17.00
2022-08-17T05:51:21.442Z,15.20
2022-08-17T05:54:00.011Z,13.18
2022-08-17T05:56:44.864Z,14.93
2022-08-17T05:59:18.534Z,17.70
2022-08-17T06:02:00.006Z,17.83
2022-08-17T06:04:38.888Z,15.13
2022-08-17T06:07:16.050Z,17.45
2022-08-17T06:09:50.557Z,12.77
2022-08-17T06:12:41.108Z,14.55
2022-08-17T06:15:24.680Z,14.82
2022-08-17T06:17:55.666Z,16.40
2022-08-17T06:20:26.287Z,16.40
2022-08-17T06:23:03.730Z,17.33
2022-08-17T06:25:35.999Z,15.63
2022-08-17T06:28:06.424Z,13.82
2022-08-17T06:30:59.446Z,15.20
2022-08-17T06:33:34.163Z,15.85
2022-08-17T06:36:18.280Z,18.05
2022-08-17T06:39:00.206Z,18.45
2022-08-17T06:41:38.801Z,17.55
2022-08-17T06:44:49.798Z,17.52
2022-08-17T06:47:09.089Z,17.90
2022-08-17T06:49:44.314Z,19.08
2022-08-17T06:52:45.901Z,17.25
2022-08-17T06:55:18.991Z,22.35
2022-08-17T06:57:52.655Z,20.85
2022-08-17T07:00:23.863Z,19.63
2022-08-17T07:02:57.040Z,19.93
2022-08-17T07:05:27.958Z,15.88
2022-08-17T07:08:05.244Z,13.35
2022-08-17T07:10:40.098Z,13.73
2022-08-17T07:13:24.806Z,13.25
2022-08-17T07:15:58.558Z,13.07
2022-08-17T07:18:28.711Z,12.00
2022-08-17T07:21:04.023Z,14.85
2022-08-17T07:23:40.057Z,12.75
2022-08-17T07:26:10.036Z,14.60
2022-08-17T07:28:39.835Z,14.07
2022-08-17T07:31:09.279Z,14.70
2022-08-17T07:33:39.323Z,10.82
2022-08-17T07:36:29.805Z,9.98
2022-08-17T07:38:58.915Z,12.52
2022-08-17T07:41:58.010Z,10.38
2022-08-17T07:44:17.652Z,11.00
2022-08-17T07:47:08.622Z,11.50
2022-08-17T07:49:38.789Z,10.07
2022-08-17T07:52:48.098Z,11.70
2022-08-17T07:54:57.615Z,15.30
2022-08-17T07:57:33.070Z,11.80
2022-08-17T08:00:19.751Z,15.57
2022-08-17T08:03:05.947Z,12.57
2022-08-17T08:05:50.517Z,15.77
2022-08-17T08:08:28.191Z,12.27
2022-08-17T08:11:02.555Z,14.98
2022-08-17T08:13:32.231Z,11.35
2022-08-17T08:16:29.116Z,12.80
2022-08-17T08:18:59.297Z,14.50
2022-08-17T08:21:34.429Z,17.15
2022-08-17T08:24:14.494Z,13.60
2022-08-17T08:26:48.038Z,13.77
2022-08-17T08:29:29.341Z,15.57
2022-08-17T08:32:07.579Z,15.60
2022-08-17T08:35:01.827Z,15.40
2022-08-17T08:37:42.959Z,15.77
2022-08-17T08:40:28.119Z,17.52
2022-08-17T08:43:05.177Z,16.77
2022-08-17T08:45:44.587Z,15.50
2022-08-17T08:48:52.863Z,17.40
2022-08-17T08:51:27.691Z,17.63
2022-08-17T08:54:03.323Z,15.10
2022-08-17T08:56:38.199Z,14.57
2022-08-17T08:59:18.731Z,14.57
2022-08-17T09:01:57.086Z,16.08
2022-08-17T09:05:12.760Z,17.85
2022-08-17T09:07:41.955Z,14.02
2022-08-17T09:10:18.160Z,17.20
2022-08-17T09:12:52.641Z,17.40
2022-08-17T09:15:27.522Z,16.15
2022-08-17T09:19:03.191Z,21.48
2022-08-17T09:20:57.411Z,19.02
2022-08-17T09:23:33.539Z,17.95
2022-08-17T09:26:07.899Z,19.98
2022-08-17T09:28:39.196Z,20.50
2022-08-17T09:31:10.771Z,16.83
2022-08-17T09:33:44.321Z,19.45
2022-08-17T09:36:18.747Z,25.40
2022-08-17T09:38:55.032Z,17.75
2022-08-17T09:41:28.223Z,17.52
2022-08-17T09:44:02.165Z,21.75
2022-08-17T09:46:34.203Z,17.33
2022-08-17T09:49:14.518Z,17.02
2022-08-17T09:51:49.391Z,19.75
2022-08-17T09:54:38.612Z,18.23
2022-08-17T09:57:31.392Z,18.95
2022-08-17T10:00:16.932Z,17.85
2022-08-17T10:03:11.782Z,18.75
2022-08-17T10:05:46.644Z,18.70
2022-08-17T10:08:27.709Z,20.63
2022-08-17T10:11:06.791Z,20.95
2022-08-17T10:13:52.721Z,21.40
2022-08-17T10:16:27.034Z,19.33
2022-08-17T10:19:06.113Z,19.08
2022-08-17T10:22:01.421Z,21.25
2022-08-17T10:25:23.154Z,19.48
2022-08-17T10:27:56.301Z,22.45
2022-08-17T10:30:27.744Z,18.48
2022-08-17T10:32:59.257Z,20.45
2022-08-17T10:35:35.909Z,23.08
2022-08-17T10:38:31.559Z,24.92
2022-08-17T10:41:07.114Z,25.55
2022-08-17T10:44:02.182Z,24.38
2022-08-17T10:46:54.204Z,28.40
2022-08-17T10:49:33.888Z,31.77
2022-08-17T10:52:03.621Z,29.05
2022-08-17T10:54:58.072Z,33.22
2022-08-17T10:57:42.681Z,33.33
2022-08-17T11:00:36.311Z,34.33
2022-08-17T11:03:18.778Z,36.42
2022-08-17T11:05:58.909Z,33.95
2022-08-17T11:09:11.828Z,36.35
2022-08-17T11:12:14.179Z,32.70
2022-08-17T11:15:00.359Z,33.97
2022-08-17T11:18:04.573Z,39.55
2022-08-17T11:20:54.828Z,41.97
2022-08-17T11:23:48.363Z,41.63
2022-08-17T11:26:26.202Z,37.38
2022-08-17T11:28:58.904Z,42.28
2022-08-17T11:31:39.322Z,45.03
2022-08-17T11:34:15.285Z,41.22
2022-08-17T11:37:21.688Z,47.03
2022-08-17T11:40:18.301Z,51.17
2022-08-17T11:43:05.791Z,48.15
2022-08-17T11:45:58.129Z,49.30
2022-08-17T11:48:54.197Z,46.28
2022-08-17T11:51:35.928Z,54.15
2022-08-17T11:54:31.776Z,54.08
2022-08-17T11:56:58.970Z,54.20
2022-08-17T12:00:10.185Z,58.42
2022-08-17T12:02:48.271Z,60.28
2022-08-17T12:05:35.199Z,59.03
2022-08-17T12:08:15.940Z,56.17
2022-08-17T12:11:01.495Z,66.43
2022-08-17T12:13:39.567Z,59.70
2022-08-17T12:16:09.994Z,64.32
2022-08-17T12:18:39.840Z,65.65
2022-08-17T12:21:20.916Z,67.72
2022-08-17T12:23:57.688Z,64.80
2022-08-17T12:26:30.395Z,68.65
2022-08-17T12:29:02.165Z,65.68
2022-08-17T12:31:34.805Z,67.63
2022-08-17T12:34:03.481Z,64.93
2022-08-17T12:36:34.500Z,61.92
2022-08-17T12:39:12.986Z,65.57
2022-08-17T12:41:45.097Z,72.00
2022-08-17T12:44:16.269Z,52.10
2022-08-17T12:46:51.322Z,64.20
2022-08-17T12:49:27.532Z,61.50
2022-08-17T12:52:04.213Z,63.10
2022-08-17T12:54:40.546Z,57.33
2022-08-17T12:57:14.005Z,51.45
2022-08-17T12:59:44.281Z,57.67
2022-08-17T13:02:22.143Z,54.45
2022-08-17T13:04:50.703Z,56.13
2022-08-17T13:07:35.283Z,55.13
2022-08-17T13:10:03.517Z,62.15
2022-08-17T13:12:34.361Z,63.65
2022-08-17T13:15:02.555Z,53.30
2022-08-17T13:17:34.623Z,56.97
2022-08-17T13:20:04.758Z,56.15
2022-08-17T13:22:34.152Z,62.45
2022-08-17T13:25:07.447Z,63.20
2022-08-17T13:27:35.316Z,52.33
2022-08-17T13:30:08.099Z,52.47
2022-08-17T13:32:43.773Z,51.22
2022-08-17T13:35:39.850Z,59.17
2022-08-17T13:38:12.366Z,53.58
2022-08-17T13:43:10.773Z,56.60
2022-08-17T13:46:01.252Z,61.25
2022-08-17T13:48:30.294Z,59.63
2022-08-17T13:51:18.315Z,61.83
2022-08-17T13:53:55.867Z,55.90
2022-08-17T13:56:38.386Z,51.63
2022-08-17T13:59:11.110Z,60.63
2022-08-17T14:01:42.438Z,65.72
2022-08-17T14:04:11.898Z,61.67
2022-08-17T14:06:53.987Z,61.88
2022-08-17T14:09:27.405Z,65.65
2022-08-17T14:11:57.777Z,63.60
2022-08-17T14:14:26.831Z,63.97
2022-08-17T14:16:55.453Z,60.08
2022-08-17T14:19:23.589Z,63.25
2022-08-17T14:21:56.364Z,65.70
2022-08-17T14:24:28.972Z,49.75
2022-08-17T14:26:58.255Z,65.75
2022-08-17T14:29:29.377Z,65.68
2022-08-17T14:31:58.160Z,59.42
2022-08-17T14:34:26.814Z,61.17
2022-08-17T14:36:54.485Z,54.03
2022-08-17T14:39:22.344Z,60.33
2022-08-17T14:41:52.965Z,63.42
2022-08-17T14:44:20.728Z,59.40
2022-08-17T14:46:50.487Z,62.33
2022-08-17T14:49:20.671Z,63.35
2022-08-17T14:51:48.636Z,62.53
2022-08-17T14:54:33.135Z,53.30
2022-08-17T14:57:23.096Z,58.10
2022-08-17T14:59:54.572Z,54.80
2022-08-17T15:02:29.718Z,58.30
2022-08-17T15:05:00.651Z,60.35
2022-08-17T15:07:30.517Z,60.03
2022-08-17T15:09:58.888Z,56.00
2022-08-17T15:12:34.345Z,54.47
2022-08-17T15:15:04.674Z,53.63
2022-08-17T15:17:45.149Z,58.22
2022-08-17T15:20:15.755Z,50.67
2022-08-17T15:22:45.826Z,50.97
2022-08-17T15:25:15.252Z,52.38
2022-08-17T15:27:44.374Z,54.20
2022-08-17T15:30:13.111Z,47.60
2022-08-17T15:32:51.405Z,47.28
2022-08-17T15:35:26.904Z,47.50
2022-08-17T15:37:57.388Z,46.53
2022-08-17T15:40:25.194Z,47.88
2022-08-17T15:42:54.396Z,40.83
2022-08-17T15:45:26.613Z,42.28
2022-08-17T15:47:54.349Z,43.13
2022-08-17T15:50:22.375Z,40.63
2022-08-17T15:52:56.271Z,39.92
2022-08-17T15:55:24.423Z,38.75
2022-08-17T15:57:53.225Z,34.53
2022-08-17T16:00:23.929Z,35.47
2022-08-17T16:03:46.438Z,32.53
2022-08-17T16:05:40.689Z,34.25
2022-08-17T16:08:10.861Z,35.63
2022-08-17T16:10:38.957Z,44.72
2022-08-17T16:13:17.425Z,43.08
2022-08-17T16:15:56.863Z,46.45
2022-08-17T16:18:28.186Z,48.92
2022-08-17T16:20:56.001Z,48.53
2022-08-17T16:23:24.394Z,55.95
2022-08-17T16:25:53.858Z,52.83
2022-08-17T16:28:35.820Z,42.00
2022-08-17T16:31:05.848Z,44.20
2022-08-17T16:33:36.671Z,51.65
2022-08-17T16:36:05.044Z,50.80
2022-08-17T16:38:32.790Z,48.70
2022-08-17T16:41:00.723Z,52.55
2022-08-17T16:43:29.225Z,55.67
2022-08-17T16:45:57.090Z,53.97
2022-08-17T16:48:27.704Z,45.50
2022-08-17T16:51:02.966Z,51.05
2022-08-17T16:53:31.749Z,51.35
2022-08-17T16:55:59.410Z,50.33
2022-08-17T16:58:27.179Z,53.15
2022-08-17T17:00:59.454Z,52.33
2022-08-17T17:03:31.880Z,49.78
2022-08-17T17:06:08.089Z,49.75
2022-08-17T17:08:44.111Z,50.85
2022-08-17T17:11:17.644Z,53.10
2022-08-17T17:13:49.635Z,49.25
2022-08-17T17:19:01.808Z,54.88
2022-08-17T17:21:36.318Z,51.40
2022-08-17T17:24:11.110Z,57.10
2022-08-17T17:26:55.151Z,54.78
2022-08-17T17:29:45.270Z,57.28
2022-08-17T17:34:55.623Z,53.42
2022-08-17T17:37:28.415Z,60.22
2022-08-17T17:40:01.032Z,54.17
2022-08-17T17:42:32.304Z,55.63
2022-08-17T17:45:05.568Z,55.23
2022-08-17T17:47:34.430Z,49.28
2022-08-17T17:50:06.656Z,42.35
2022-08-17T17:52:40.943Z,44.55
2022-08-17T17:55:24.205Z,42.53
2022-08-17T17:58:01.918Z,41.63
2022-08-17T18:00:38.294Z,42.83
2022-08-17T18:03:24.360Z,38.63
2022-08-17T18:06:15.031Z,41.30
2022-08-17T18:08:58.989Z,39.10
2022-08-17T18:11:45.603Z,41.15
2022-08-17T18:14:29.913Z,36.25
2022-08-17T18:16:59.945Z,34.83
2022-08-17T18:19:29.817Z,35.60
2022-08-17T18:22:14.849Z,33.42
2022-08-17T18:24:45.606Z,32.33
2022-08-17T18:27:24.173Z,34.97
2022-08-17T18:29:53.868Z,33.08
2022-08-17T18:32:41.372Z,29.95
2022-08-17T18:35:32.632Z,31.00
2022-08-17T18:38:20.834Z,28.48
2022-08-17T18:40:59.770Z,31.33
2022-08-17T18:43:43.789Z,32.85
2022-08-17T18:46:29.446Z,30.98
2022-08-17T18:48:59.658Z,35.35
2022-08-17T18:51:41.492Z,32.53
2022-08-17T18:54:20.722Z,64.00
2022-08-17T18:56:54.609Z,39.92
2022-08-17T18:59:30.226Z,33.97
2022-08-17T19:02:16.069Z,32.72
2022-08-17T19:04:59.743Z,32.95
2022-08-17T19:07:31.325Z,35.13
2022-08-17T19:10:19.874Z,32.83
2022-08-17T19:12:52.770Z,36.10
2022-08-17T19:15:28.894Z,36.55
2022-08-17T19:18:01.735Z,37.35
2022-08-17T19:20:33.109Z,38.75
2022-08-17T19:23:11.159Z,39.78
2022-08-17T19:25:48.293Z,40.60
2022-08-17T19:28:22.998Z,39.35
2022-08-17T19:30:55.887Z,44.58
2022-08-17T19:33:23.891Z,46.13
2022-08-17T19:36:02.346Z,46.60
2022-08-17T19:38:41.281Z,45.05
2022-08-17T19:41:17.306Z,45.92
2022-08-17T19:43:59.323Z,47.13
2022-08-17T19:46:35.628Z,47.95
2022-08-17T19:49:11.715Z,48.17
2022-08-17T19:51:48.580Z,50.60
2022-08-17T19:54:27.031Z,50.35
2022-08-17T19:57:02.828Z,48.30
2022-08-17T19:59:49.041Z,47.60
2022-08-17T20:02:27.352Z,50.47
2022-08-17T20:05:00.210Z,55.28
2022-08-17T20:07:43.285Z,51.08
2022-08-17T20:10:39.179Z,54.67
2022-08-17T20:13:10.972Z,53.08
2022-08-17T20:15:42.862Z,54.10
2022-08-17T20:18:21.642Z,51.75
2022-08-17T20:20:58.066Z,60.10
2022-08-17T20:23:45.356Z,57.92
2022-08-17T20:26:20.519Z,60.45
2022-08-17T20:29:37.705Z,61.15
2022-08-17T20:32:29.670Z,63.10
2022-08-17T20:35:20.237Z,53.05
2022-08-17T20:37:58.349Z,62.67
2022-08-17T20:40:30.051Z,54.83
2022-08-17T20:42:59.345Z,63.17
2022-08-17T20:46:08.752Z,69.88
2022-08-17T20:48:41.103Z,65.43
2022-08-17T20:51:23.714Z,67.22
2022-08-17T20:56:50.115Z,67.00
2022-08-17T20:59:55.192Z,68.10
2022-08-17T21:02:26.718Z,69.72
2022-08-17T21:05:30.274Z,64.43
2022-08-17T21:08:02.132Z,60.67
2022-08-17T21:10:38.466Z,63.78
2022-08-17T21:13:35.902Z,69.18
2022-08-17T21:16:11.219Z,67.45
2022-08-17T21:18:51.458Z,72.80
2022-08-17T21:21:27.037Z,67.10
2022-08-17T21:24:20.391Z,71.40
2022-08-17T21:26:58.142Z,75.40
2022-08-17T21:29:31.192Z,74.05
2022-08-17T21:32:23.738Z,71.78
2022-08-17T21:35:25.708Z,80.28
2022-08-17T21:38:04.354Z,73.43
2022-08-17T21:40:33.947Z,71.22
2022-08-17T21:43:17.935Z,77.00
2022-08-17T21:45:59.962Z,79.90
2022-08-17T21:48:30.876Z,78.63
2022-08-17T21:51:04.682Z,65.75
2022-08-17T21:53:40.988Z,78.28
2022-08-17T21:56:10.938Z,76.05
2022-08-17T21:58:40.982Z,83.88
2022-08-17T22:01:24.645Z,78.13
2022-08-17T22:03:59.077Z,83.13
2022-08-17T22:06:34.137Z,88.00
2022-08-17T22:09:07.431Z,80.20
2022-08-17T22:11:53.267Z,75.03
2022-08-17T22:14:22.936Z,90.97
2022-08-17T22:17:10.686Z,82.10
2022-08-17T22:19:39.449Z,91.95
2022-08-17T22:22:11.938Z,90.63
2022-08-17T22:24:38.766Z,94.15
2022-08-17T22:27:12.918Z,96.55
2022-08-17T22:30:00.977Z,96.30
2022-08-17T22:32:38.923Z,101.07
2022-08-17T22:35:29.205Z,100.28
2022-08-17T22:37:58.924Z,92.88
2022-08-17T22:40:30.435Z,78.95
2022-08-17T22:42:59.827Z,94.55
2022-08-17T22:45:29.780Z,99.15
2022-08-17T22:48:02.149Z,98.07
2022-08-17T22:50:33.227Z,78.65
2022-08-17T22:53:22.579Z,93.03
2022-08-17T22:56:11.967Z,73.97
2022-08-17T22:59:02.330Z,82.97
2022-08-17T23:01:32.508Z,92.65
2022-08-17T23:04:02.905Z,75.38
2022-08-17T23:06:33.691Z,77.20
2022-08-17T23:09:04.418Z,86.63
2022-08-17T23:11:48.827Z,93.28
2022-08-17T23:14:19.274Z,94.00
2022-08-17T23:16:47.126Z,89.65
2022-08-17T23:19:17.052Z,81.13
2022-08-17T23:21:45.721Z,100.88
2022-08-17T23:24:20.484Z,76.88
2022-08-17T23:26:48.266Z,77.60
2022-08-17T23:29:16.066Z,73.30
2022-08-17T23:31:44.018Z,94.38
2022-08-17T23:34:15.074Z,74.80
2022-08-17T23:36:49.805Z,95.15
2022-08-17T23:39:27.336Z,92.95
2022-08-17T23:41:58.189Z,65.00
2022-08-17T23:44:26.783Z,77.15
2022-08-17T23:46:55.518Z,71.88
2022-08-17T23:49:23.400Z,67.22
2022-08-17T23:51:53.605Z,86.43
2022-08-17T23:54:27.817Z,69.55
2022-08-17T23:56:55.579Z,90.65
2022-08-17T23:59:25.210Z,84.43
